Time;durP1;ratioP1;P1;durP2;ratioP2;P2;SDS_P1;SDS_P2;PMS_P1;PMS_P2;Temp;Humidity;BMP_temperature;BMP_pressure;BME280_temperature;BME280_humidity;BME280_pressure;Samples;Min_cycle;Max_cycle;Signal;HPM_P1;HPM_P2
2022/12/11 00:01:44;;;;;;;36.03;18.27;;;-2.40;99.90;;;;;;5049235;28;20462;-66
2022/12/11 00:04:11;;;;;;;41.47;18.00;;;-2.40;99.90;;;;;;5050014;28;20853;-66
2022/12/11 00:06:38;;;;;;;39.20;18.43;;;-2.40;99.90;;;;;;5041951;28;20520;-65
2022/12/11 00:09:05;;;;;;;35.53;18.23;;;-2.40;99.90;;;;;;5051677;28;20567;-65
2022/12/11 00:11:31;;;;;;;37.17;17.20;;;-2.20;99.90;;;;;;5051484;28;20450;-66
2022/12/11 00:13:58;;;;;;;34.00;16.10;;;-2.40;99.90;;;;;;5050944;28;20480;-66
2022/12/11 00:16:26;;;;;;;41.60;17.37;;;-2.40;99.90;;;;;;5050989;28;20457;-66
2022/12/11 00:18:53;;;;;;;36.30;17.07;;;-2.30;99.90;;;;;;5051056;28;20846;-65
2022/12/11 00:21:19;;;;;;;36.10;17.03;;;-2.30;99.90;;;;;;5046237;28;20457;-66
2022/12/11 00:23:46;;;;;;;34.93;17.00;;;-2.20;99.90;;;;;;5051404;28;20879;-66
2022/12/11 00:26:15;;;;;;;32.60;16.23;;;-2.30;99.90;;;;;;5050694;28;20450;-66
2022/12/11 00:28:42;;;;;;;37.07;17.37;;;-2.30;99.90;;;;;;5047009;28;20835;-65
2022/12/11 00:31:13;;;;;;;36.73;17.17;;;-2.30;99.90;;;;;;5051542;28;20459;-65
2022/12/11 00:33:41;;;;;;;38.20;17.40;;;-2.20;99.90;;;;;;5042800;28;20464;-65
2022/12/11 00:36:11;;;;;;;31.20;15.93;;;-2.20;99.90;;;;;;5050636;28;20450;-65
2022/12/11 00:38:38;;;;;;;33.77;16.30;;;-2.20;99.90;;;;;;5050576;28;20941;-66
2022/12/11 00:41:05;;;;;;;33.93;17.67;;;-2.20;99.90;;;;;;5049933;28;20464;-65
2022/12/11 00:43:32;;;;;;;37.33;17.43;;;-2.20;99.90;;;;;;5051146;28;20450;-65
2022/12/11 00:45:58;;;;;;;36.87;17.20;;;-2.30;99.90;;;;;;5049951;28;20484;-65
2022/12/11 00:48:25;;;;;;;34.57;17.47;;;-2.20;99.90;;;;;;5050248;28;20449;-65
2022/12/11 00:50:53;;;;;;;39.37;18.97;;;-2.40;99.90;;;;;;5046800;28;20461;-65
2022/12/11 00:53:20;;;;;;;41.57;17.93;;;-2.40;99.90;;;;;;5050093;28;20456;-65
2022/12/11 00:55:46;;;;;;;43.17;19.10;;;-2.40;99.90;;;;;;5050634;28;20500;-65
2022/12/11 00:58:13;;;;;;;37.87;18.70;;;-2.30;99.90;;;;;;5051217;28;20460;-65
2022/12/11 01:00:42;;;;;;;33.80;17.87;;;-2.30;99.90;;;;;;5049457;28;20554;-65
2022/12/11 01:03:10;;;;;;;34.90;16.00;;;-2.30;99.90;;;;;;5050292;28;20546;-65
2022/12/11 01:05:37;;;;;;;35.73;16.30;;;-2.20;99.90;;;;;;5050009;28;20473;-65
2022/12/11 01:08:06;;;;;;;42.00;17.53;;;-2.20;99.90;;;;;;5049531;28;20957;-65
2022/12/11 01:10:31;;;;;;;37.20;16.83;;;-2.20;99.90;;;;;;5049628;28;20449;-65
2022/12/11 01:13:00;;;;;;;35.83;17.07;;;-2.20;99.90;;;;;;5050549;28;20841;-65
2022/12/11 01:15:30;;;;;;;35.90;15.83;;;-2.20;99.90;;;;;;5049889;28;20482;-65
2022/12/11 01:17:57;;;;;;;38.37;17.27;;;-2.20;99.90;;;;;;5050956;28;20804;-65
2022/12/11 01:20:26;;;;;;;40.07;19.57;;;-2.20;99.90;;;;;;5049338;28;20489;-65
2022/12/11 01:22:53;;;;;;;33.43;16.27;;;-2.20;99.90;;;;;;5050224;28;20540;-65
2022/12/11 01:25:22;;;;;;;37.93;17.57;;;-2.10;99.90;;;;;;5050435;28;20559;-65
2022/12/11 01:27:51;;;;;;;35.93;17.17;;;-2.20;99.90;;;;;;5049956;28;20456;-65
2022/12/11 01:30:18;;;;;;;46.17;16.67;;;-2.10;99.90;;;;;;5050202;28;20532;-65
2022/12/11 01:32:45;;;;;;;37.10;17.53;;;-2.10;99.90;;;;;;5049549;28;20457;-65
2022/12/11 01:35:12;;;;;;;35.20;17.90;;;-2.10;99.90;;;;;;5049383;28;20478;-65
2022/12/11 01:37:39;;;;;;;46.33;18.37;;;-2.00;99.90;;;;;;5050479;28;20453;-65
2022/12/11 01:40:08;;;;;;;34.40;16.73;;;-2.00;99.90;;;;;;5050060;28;20546;-65
2022/12/11 01:42:36;;;;;;;38.70;17.37;;;-2.00;99.90;;;;;;5049709;28;20482;-65
2022/12/11 01:45:32;;;;;;;44.33;19.40;;;-2.00;99.90;;;;;;5049219;28;20493;-65
2022/12/11 01:48:05;;;;;;;40.77;20.17;;;-1.90;99.90;;;;;;5047882;28;20457;-65
2022/12/11 01:50:36;;;;;;;42.07;18.50;;;-1.90;99.90;;;;;;5050185;28;20453;-65
2022/12/11 01:53:05;;;;;;;43.73;20.80;;;-1.90;99.90;;;;;;5049623;28;20453;-65
2022/12/11 01:55:33;;;;;;;39.80;19.87;;;-1.90;99.90;;;;;;5049405;28;20478;-65
2022/12/11 01:58:02;;;;;;;42.00;19.70;;;-1.80;99.90;;;;;;5042759;28;20456;-65
2022/12/11 02:00:29;;;;;;;48.77;21.47;;;-1.80;99.90;;;;;;5049616;28;20859;-65
2022/12/11 02:02:56;;;;;;;47.13;20.57;;;-1.80;99.90;;;;;;5049780;28;20461;-65
2022/12/11 02:05:22;;;;;;;45.37;20.90;;;-1.80;99.90;;;;;;5049911;28;20485;-65
2022/12/11 02:07:53;;;;;;;44.33;19.30;;;-1.80;99.90;;;;;;5049476;28;20513;-65
2022/12/11 02:10:21;;;;;;;39.40;18.40;;;-1.80;99.90;;;;;;5049911;28;20450;-65
2022/12/11 02:12:57;;;;;;;44.07;19.50;;;-1.90;99.90;;;;;;5045284;28;20461;-65
2022/12/11 02:15:33;;;;;;;37.20;18.40;;;-1.80;99.90;;;;;;5050425;28;21055;-65
2022/12/11 02:18:11;;;;;;;44.63;18.67;;;-1.90;99.90;;;;;;5054158;28;20875;-65
2022/12/11 02:20:42;;;;;;;39.97;18.80;;;-1.90;99.90;;;;;;5052627;28;20488;-65
2022/12/11 02:23:29;;;;;;;40.37;17.93;;;-1.80;99.90;;;;;;5053516;28;20450;-65
2022/12/11 02:26:07;;;;;;;41.90;19.63;;;-1.80;99.90;;;;;;5053595;28;20471;-65
2022/12/11 02:28:38;;;;;;;39.07;17.80;;;-1.90;99.90;;;;;;5051257;28;20446;-65
2022/12/11 02:31:10;;;;;;;40.77;17.63;;;-1.90;99.90;;;;;;5053681;28;20445;-65
2022/12/11 02:33:44;;;;;;;39.10;18.10;;;-1.90;99.90;;;;;;5052831;28;20961;-65
2022/12/11 02:36:11;;;;;;;35.20;18.10;;;-1.90;99.90;;;;;;5052640;28;20457;-65
2022/12/11 02:38:41;;;;;;;37.40;17.63;;;-1.90;99.90;;;;;;5052685;28;20456;-65
2022/12/11 02:41:10;;;;;;;34.73;17.63;;;-1.90;99.90;;;;;;5051712;28;20570;-65
2022/12/11 02:43:39;;;;;;;34.77;17.00;;;-1.80;99.90;;;;;;5052605;28;20459;-65
2022/12/11 02:46:08;;;;;;;36.30;16.37;;;-1.90;99.90;;;;;;5053188;28;20803;-65
2022/12/11 02:48:36;;;;;;;39.90;19.00;;;-1.90;99.90;;;;;;5052792;28;20457;-65
2022/12/11 02:51:05;;;;;;;41.53;19.83;;;-1.90;99.90;;;;;;5051268;28;20457;-65
2022/12/11 02:53:35;;;;;;;41.70;18.90;;;-1.90;99.90;;;;;;5053132;28;20450;-65
2022/12/11 02:56:10;;;;;;;39.23;18.93;;;-1.90;99.90;;;;;;5052276;28;20607;-65
2022/12/11 02:58:44;;;;;;;47.27;19.07;;;-1.90;99.90;;;;;;5053404;28;20461;-65
2022/12/11 03:01:11;;;;;;;50.40;20.53;;;-1.90;99.90;;;;;;5052469;28;20488;-65
2022/12/11 03:03:38;;;;;;;41.63;19.43;;;-1.90;99.90;;;;;;5052144;28;20453;-65
2022/12/11 03:06:05;;;;;;;43.90;20.63;;;-2.00;99.90;;;;;;5052867;28;20457;-65
2022/12/11 03:08:32;;;;;;;44.63;21.30;;;-2.10;99.90;;;;;;5052405;28;20469;-66
2022/12/11 03:10:58;;;;;;;42.93;18.77;;;-2.10;99.90;;;;;;5052152;28;20881;-65
2022/12/11 03:13:25;;;;;;;47.47;21.13;;;-2.10;99.90;;;;;;5053024;28;20458;-64
2022/12/11 03:16:07;;;;;;;54.47;21.27;;;-2.20;99.90;;;;;;5046444;28;20497;-64
2022/12/11 03:18:40;;;;;;;45.03;20.03;;;-2.20;99.90;;;;;;5053036;28;20460;-65
2022/12/11 03:21:14;;;;;;;47.00;20.33;;;-2.20;99.90;;;;;;5052099;28;20620;-65
2022/12/11 03:23:47;;;;;;;45.70;21.10;;;-2.30;99.90;;;;;;5051661;28;20457;-65
2022/12/11 03:26:17;;;;;;;44.40;20.10;;;-2.30;99.90;;;;;;5052085;28;20547;-65
2022/12/11 03:28:47;;;;;;;48.80;21.30;;;-2.30;99.90;;;;;;5052137;28;20453;-64
2022/12/11 03:31:21;;;;;;;52.67;22.00;;;-2.20;99.90;;;;;;5051839;28;20445;-65
2022/12/11 03:33:51;;;;;;;48.77;21.80;;;-2.20;99.90;;;;;;5052801;28;20445;-64
2022/12/11 03:36:23;;;;;;;50.53;20.80;;;-2.20;99.90;;;;;;5051417;28;20504;-64
2022/12/11 03:38:54;;;;;;;50.33;21.10;;;-2.10;99.90;;;;;;5049582;28;20510;-64
2022/12/11 03:41:23;;;;;;;48.93;21.70;;;-2.10;99.90;;;;;;5052132;28;20492;-65
2022/12/11 03:43:52;;;;;;;44.67;20.70;;;-2.00;99.90;;;;;;5051380;28;20520;-65
2022/12/11 03:46:23;;;;;;;51.70;21.50;;;-2.00;99.90;;;;;;5051380;28;20464;-67
2022/12/11 03:48:50;;;;;;;52.77;21.13;;;-2.00;99.90;;;;;;5052008;28;20457;-65
2022/12/11 03:51:17;;;;;;;52.83;22.40;;;-2.00;99.90;;;;;;5051534;28;20485;-66
2022/12/11 03:53:45;;;;;;;48.77;21.23;;;-2.00;99.90;;;;;;5051821;28;20453;-65
2022/12/11 03:56:15;;;;;;;44.80;20.17;;;-2.00;99.90;;;;;;5051551;28;20457;-65
2022/12/11 03:58:42;;;;;;;40.93;19.20;;;-2.10;99.90;;;;;;5051996;28;20448;-65
2022/12/11 04:01:09;;;;;;;49.47;20.63;;;-2.10;99.90;;;;;;5051498;28;20485;-67
2022/12/11 04:03:37;;;;;;;50.63;20.20;;;-2.20;99.90;;;;;;5050605;28;20466;-64
2022/12/11 04:06:04;;;;;;;47.17;19.57;;;-2.20;99.90;;;;;;5051811;28;20454;-65
2022/12/11 04:08:31;;;;;;;42.70;20.67;;;-2.10;99.90;;;;;;5052272;28;20449;-65
2022/12/11 04:13:40;;;;;;;45.63;19.90;;;-2.00;99.90;;;;;;5051521;28;20842;-65
2022/12/11 04:16:06;;;;;;;49.70;21.27;;;-2.00;99.90;;;;;;5050815;28;20450;-64
2022/12/11 04:24:17;;;;;;;52.07;21.10;;;-1.90;99.90;;;;;;5050093;28;21000;-65
2022/12/11 04:26:45;;;;;;;43.70;19.40;;;-1.90;99.90;;;;;;5051783;28;20495;-65
2022/12/11 04:29:12;;;;;;;46.80;20.70;;;-1.90;99.90;;;;;;5051219;28;20457;-65
2022/12/11 04:31:39;;;;;;;51.70;21.77;;;-1.90;99.90;;;;;;5048659;28;20792;-65
2022/12/11 04:34:06;;;;;;;47.63;21.67;;;-2.00;99.90;;;;;;5051337;28;21000;-65
2022/12/11 04:36:34;;;;;;;44.53;20.90;;;-2.00;99.90;;;;;;5050420;28;20485;-65
2022/12/11 04:39:01;;;;;;;46.17;20.23;;;-2.00;99.90;;;;;;5050259;28;20449;-65
2022/12/11 04:41:28;;;;;;;43.70;19.67;;;-2.00;99.90;;;;;;5050976;28;20527;-65
2022/12/11 04:43:54;;;;;;;47.77;20.90;;;-2.00;99.90;;;;;;5050158;28;20463;-65
2022/12/11 04:46:23;;;;;;;47.83;20.83;;;-2.00;99.90;;;;;;5050212;28;20457;-65
2022/12/11 04:48:51;;;;;;;47.80;20.97;;;-2.10;99.90;;;;;;5051038;28;20461;-65
2022/12/11 04:51:18;;;;;;;47.67;20.97;;;-2.10;99.90;;;;;;5049637;28;20461;-64
2022/12/11 04:53:46;;;;;;;46.07;21.30;;;-2.00;99.90;;;;;;5049625;28;21002;-65
2022/12/11 04:56:15;;;;;;;47.00;20.00;;;-2.00;99.90;;;;;;5050729;28;20484;-65
2022/12/11 04:58:44;;;;;;;37.70;17.60;;;-2.00;99.90;;;;;;5050420;28;20455;-65
2022/12/11 05:01:12;;;;;;;52.23;21.30;;;-2.10;99.90;;;;;;5050330;28;21016;-65
2022/12/11 05:03:39;;;;;;;45.60;20.23;;;-2.10;99.90;;;;;;5050179;28;20458;-65
2022/12/11 05:06:06;;;;;;;48.33;21.57;;;-2.10;99.90;;;;;;5049342;28;20965;-65
2022/12/11 05:08:35;;;;;;;43.40;21.47;;;-2.00;99.90;;;;;;5049673;28;20454;-65
2022/12/11 05:11:06;;;;;;;46.80;21.70;;;-2.00;99.90;;;;;;5050458;28;20450;-65
2022/12/11 05:13:33;;;;;;;49.17;20.80;;;-2.00;99.90;;;;;;5049535;28;20449;-65
2022/12/11 05:16:00;;;;;;;46.63;20.83;;;-1.90;99.90;;;;;;5050028;28;20531;-65
2022/12/11 05:18:27;;;;;;;49.93;21.10;;;-1.90;99.90;;;;;;5050053;28;20459;-65
2022/12/11 05:20:57;;;;;;;40.33;18.97;;;-1.80;99.90;;;;;;5050802;28;20487;-65
2022/12/11 05:23:23;;;;;;;44.57;20.00;;;-1.80;99.90;;;;;;5049850;28;21005;-65
2022/12/11 05:25:53;;;;;;;50.63;21.57;;;-1.80;99.90;;;;;;5049281;28;20474;-65
2022/12/11 05:28:23;;;;;;;60.17;22.07;;;-1.80;99.90;;;;;;5050138;28;21003;-65
2022/12/11 05:30:55;;;;;;;50.53;20.33;;;-1.80;99.90;;;;;;5049099;28;20540;-65
2022/12/11 05:33:22;;;;;;;44.50;20.13;;;-1.90;99.90;;;;;;5049232;28;20545;-65
2022/12/11 05:35:49;;;;;;;45.70;19.97;;;-1.90;99.90;;;;;;5050448;28;20485;-65
2022/12/11 05:38:15;;;;;;;57.07;21.60;;;-2.00;99.90;;;;;;5049649;28;20487;-64
2022/12/11 05:40:42;;;;;;;58.80;20.37;;;-2.10;99.90;;;;;;5049990;28;20524;-64
2022/12/11 05:43:09;;;;;;;52.07;21.43;;;-2.20;99.90;;;;;;5049655;28;20490;-67
2022/12/11 05:45:37;;;;;;;48.30;20.43;;;-2.20;99.90;;;;;;5047446;28;20480;-64
2022/12/11 05:48:04;;;;;;;55.30;20.97;;;-2.30;99.90;;;;;;5049484;28;20537;-65
2022/12/11 05:50:31;;;;;;;46.70;21.03;;;-2.30;99.90;;;;;;5051596;28;20475;-64
2022/12/11 05:52:58;;;;;;;49.20;22.50;;;-2.30;99.90;;;;;;5053131;28;20468;-65
2022/12/11 05:55:25;;;;;;;51.03;21.93;;;-2.30;99.90;;;;;;5054352;28;20485;-65
2022/12/11 05:57:51;;;;;;;53.17;22.60;;;-2.30;99.90;;;;;;5053467;28;20457;-66
2022/12/11 06:00:18;;;;;;;50.87;21.10;;;-2.30;99.90;;;;;;5052845;28;20480;-66
2022/12/11 06:02:46;;;;;;;55.30;21.43;;;-2.20;99.90;;;;;;5053776;28;20812;-66
2022/12/11 06:05:13;;;;;;;56.27;21.37;;;-2.30;99.90;;;;;;5053652;28;20470;-66
2022/12/11 06:07:39;;;;;;;50.40;21.63;;;-2.30;99.90;;;;;;5053246;28;20454;-66
2022/12/11 06:10:07;;;;;;;52.57;22.80;;;-2.20;99.90;;;;;;5054597;28;20453;-66
2022/12/11 06:12:33;;;;;;;55.30;22.93;;;-2.30;99.90;;;;;;5052864;28;20532;-67
2022/12/11 06:15:00;;;;;;;57.60;22.97;;;-2.20;99.90;;;;;;5053874;28;20477;-66
2022/12/11 06:17:27;;;;;;;57.67;23.73;;;-2.20;99.90;;;;;;5053679;28;20457;-66
2022/12/11 06:19:55;;;;;;;57.67;24.87;;;-2.20;99.90;;;;;;5053349;28;21004;-66
2022/12/11 06:22:21;;;;;;;53.10;23.10;;;-2.20;99.90;;;;;;5053359;28;20493;-67
2022/12/11 06:24:48;;;;;;;51.53;22.23;;;-2.20;99.90;;;;;;5053696;28;20473;-66
2022/12/11 06:27:15;;;;;;;56.40;23.40;;;-2.10;99.90;;;;;;5052717;28;20453;-66
2022/12/11 06:29:41;;;;;;;67.40;24.40;;;-2.10;99.90;;;;;;5053511;28;20457;-67
2022/12/11 06:32:09;;;;;;;52.20;22.30;;;-2.10;99.90;;;;;;5053029;28;20494;-66
2022/12/11 06:34:35;;;;;;;62.87;24.10;;;-2.20;99.90;;;;;;5053030;28;20480;-66
2022/12/11 06:37:03;;;;;;;56.63;21.17;;;-2.10;99.90;;;;;;5053041;28;20454;-67
2022/12/11 06:39:30;;;;;;;59.63;24.43;;;-2.10;99.90;;;;;;5052873;28;20507;-66
2022/12/11 06:41:57;;;;;;;57.97;23.00;;;-2.10;99.90;;;;;;5050097;28;20900;-66
2022/12/11 06:44:23;;;;;;;58.43;23.37;;;-2.20;99.90;;;;;;5053053;28;20891;-66
2022/12/11 06:46:50;;;;;;;55.17;23.90;;;-2.20;99.90;;;;;;5051793;28;20492;-67
2022/12/11 06:49:17;;;;;;;55.43;23.07;;;-2.20;99.90;;;;;;5053614;28;20549;-67
2022/12/11 06:51:43;;;;;;;55.50;22.33;;;-2.20;99.90;;;;;;5053220;28;20450;-66
2022/12/11 06:54:11;;;;;;;56.60;23.10;;;-2.10;99.90;;;;;;5051810;28;20469;-67
2022/12/11 06:56:38;;;;;;;48.50;21.50;;;-2.10;99.90;;;;;;5053002;28;20512;-67
2022/12/11 06:59:06;;;;;;;45.20;20.73;;;-2.00;99.90;;;;;;5052912;28;20957;-67
2022/12/11 07:01:32;;;;;;;60.07;22.90;;;-2.00;99.90;;;;;;5052397;28;20501;-67
2022/12/11 07:04:00;;;;;;;57.90;23.00;;;-2.00;99.90;;;;;;5053190;28;20477;-66
2022/12/11 07:06:28;;;;;;;54.27;22.20;;;-2.00;99.90;;;;;;5051969;28;20453;-67
2022/12/11 07:08:55;;;;;;;55.43;22.17;;;-2.10;99.90;;;;;;5052828;28;20453;-67
2022/12/11 07:11:24;;;;;;;61.27;22.90;;;-2.10;99.90;;;;;;5052918;28;20454;-67
2022/12/11 07:13:51;;;;;;;54.20;23.10;;;-2.00;99.90;;;;;;5051684;28;20484;-68
2022/12/11 07:16:18;;;;;;;55.47;23.13;;;-2.10;99.90;;;;;;5052485;28;20959;-67
2022/12/11 07:18:48;;;;;;;58.07;24.73;;;-2.10;99.90;;;;;;5052702;28;21000;-68
2022/12/11 07:21:14;;;;;;;60.00;23.90;;;-2.00;99.90;;;;;;5052395;28;20485;-67
2022/12/11 07:23:41;;;;;;;54.73;22.97;;;-2.10;99.90;;;;;;5052344;28;20834;-67
2022/12/11 07:26:10;;;;;;;54.63;22.57;;;-2.10;99.90;;;;;;5051773;28;20560;-67
2022/12/11 07:28:38;;;;;;;52.07;21.70;;;-2.00;99.90;;;;;;5051987;28;20485;-67
2022/12/11 07:31:06;;;;;;;56.30;23.93;;;-2.10;99.90;;;;;;5052873;28;20449;-67
2022/12/11 07:33:33;;;;;;;53.33;22.47;;;-2.00;99.90;;;;;;5051730;28;20984;-67
2022/12/11 07:36:01;;;;;;;54.83;23.20;;;-2.00;99.90;;;;;;5051954;28;20552;-67
2022/12/11 07:38:28;;;;;;;52.13;21.30;;;-2.00;99.90;;;;;;5052620;28;20957;-67
2022/12/11 07:40:55;;;;;;;44.93;21.30;;;-1.90;99.90;;;;;;5051081;28;20996;-66
2022/12/11 07:43:21;;;;;;;56.27;23.83;;;-1.80;99.90;;;;;;5051651;28;20802;-67
2022/12/11 07:45:49;;;;;;;57.70;23.90;;;-1.90;99.90;;;;;;5050117;28;20535;-67
2022/12/11 07:48:16;;;;;;;51.40;24.53;;;-1.80;99.90;;;;;;5051896;28;20512;-68
2022/12/11 07:50:43;;;;;;;56.60;23.33;;;-1.90;99.90;;;;;;5052182;28;20457;-67
2022/12/11 07:53:09;;;;;;;52.83;22.50;;;-1.80;99.90;;;;;;5051179;28;20450;-67
2022/12/11 07:55:36;;;;;;;51.80;23.37;;;-1.90;99.90;;;;;;5051423;28;20474;-67
2022/12/11 07:58:03;;;;;;;56.80;23.43;;;-1.30;99.90;;;;;;5052437;28;20772;-66
2022/12/11 08:00:30;;;;;;;53.70;23.90;;;-1.90;99.90;;;;;;5050917;28;21013;-66
2022/12/11 08:02:58;;;;;;;53.00;23.60;;;-1.80;99.90;;;;;;5052059;28;20445;-66
2022/12/11 08:05:25;;;;;;;55.23;23.63;;;-1.80;99.90;;;;;;5051570;28;20505;-67
2022/12/11 08:07:51;;;;;;;53.37;24.30;;;-1.80;99.90;;;;;;5050939;28;20470;-67
2022/12/11 08:10:18;;;;;;;53.40;22.97;;;-1.70;99.90;;;;;;5047434;28;20453;-66
2022/12/11 08:12:45;;;;;;;62.10;25.20;;;-1.70;99.90;;;;;;5047810;28;20452;-66
2022/12/11 08:15:12;;;;;;;52.93;23.97;;;-1.70;99.90;;;;;;5050060;28;20489;-67
2022/12/11 08:17:39;;;;;;;59.47;23.07;;;-1.70;99.90;;;;;;5052098;28;20451;-67
2022/12/11 08:20:08;;;;;;;58.83;25.50;;;-1.70;99.90;;;;;;5051100;28;20481;-68
2022/12/11 08:22:35;;;;;;;55.70;23.50;;;-1.70;99.90;;;;;;5050725;28;20508;-68
2022/12/11 08:25:01;;;;;;;52.90;23.73;;;-1.50;99.90;;;;;;5051692;28;20570;-68
2022/12/11 08:27:28;;;;;;;59.30;24.60;;;-1.60;99.90;;;;;;5045712;28;20461;-68
2022/12/11 08:29:55;;;;;;;63.00;26.30;;;-1.60;99.90;;;;;;5051374;28;20461;-67
2022/12/11 08:32:21;;;;;;;67.60;23.23;;;-1.50;99.90;;;;;;5051761;28;20452;-68
2022/12/11 08:34:50;;;;;;;52.83;23.03;;;-1.50;99.90;;;;;;5050684;28;20478;-68
2022/12/11 08:37:18;;;;;;;54.07;23.73;;;-1.50;99.90;;;;;;5044754;28;20533;-67
2022/12/11 08:39:45;;;;;;;53.13;24.73;;;-1.50;99.90;;;;;;5051005;28;20454;-67
2022/12/11 08:42:12;;;;;;;51.63;23.90;;;-1.50;99.90;;;;;;5050454;28;21015;-68
2022/12/11 08:44:39;;;;;;;54.47;22.50;;;-1.50;99.90;;;;;;5051406;28;20477;-67
2022/12/11 08:47:05;;;;;;;55.53;22.30;;;-1.60;99.90;;;;;;5050319;28;20453;-67
2022/12/11 08:49:32;;;;;;;55.70;24.00;;;-1.60;99.90;;;;;;5045845;28;20972;-67
2022/12/11 08:51:59;;;;;;;62.77;23.23;;;-1.50;99.90;;;;;;5050408;28;20465;-67
2022/12/11 08:54:27;;;;;;;54.33;21.63;;;-1.50;99.90;;;;;;5050771;28;20484;-67
2022/12/11 08:56:53;;;;;;;52.13;22.20;;;-1.30;99.90;;;;;;5045346;28;20515;-66
2022/12/11 08:59:20;;;;;;;58.20;24.93;;;-1.50;99.90;;;;;;5045293;28;20458;-67
2022/12/11 09:01:47;;;;;;;48.13;21.93;;;-1.50;99.90;;;;;;5049888;28;20486;-66
2022/12/11 09:04:13;;;;;;;53.03;23.67;;;-1.50;99.90;;;;;;5050997;28;20473;-67
2022/12/11 09:06:40;;;;;;;43.63;20.33;;;-1.50;99.90;;;;;;5050449;28;20457;-66
2022/12/11 09:09:07;;;;;;;51.93;23.13;;;-1.50;99.90;;;;;;5049009;28;20457;-66
2022/12/11 09:11:36;;;;;;;55.87;23.87;;;-1.50;99.90;;;;;;5050701;28;20445;-66
2022/12/11 09:14:04;;;;;;;52.80;21.80;;;-1.40;99.90;;;;;;5050719;28;20485;-67
2022/12/11 09:16:31;;;;;;;53.83;21.07;;;-1.40;99.90;;;;;;5049165;28;20808;-67
2022/12/11 09:18:59;;;;;;;51.70;23.47;;;-1.40;99.90;;;;;;5050962;28;20540;-66
2022/12/11 09:21:27;;;;;;;49.30;21.20;;;-1.40;99.90;;;;;;5049395;28;20493;-67
2022/12/11 09:23:55;;;;;;;56.23;24.27;;;-1.50;99.90;;;;;;5049803;28;20466;-67
2022/12/11 09:26:22;;;;;;;54.70;25.63;;;-1.50;99.90;;;;;;5049088;28;20956;-67
2022/12/11 09:28:52;;;;;;;52.20;23.80;;;-1.40;99.90;;;;;;5049913;28;21109;-67
2022/12/11 09:31:22;;;;;;;56.43;25.10;;;-1.40;99.90;;;;;;5049013;28;20460;-67
2022/12/11 09:33:50;;;;;;;59.20;24.83;;;-1.40;99.90;;;;;;5050089;28;20462;-66
2022/12/11 09:36:17;;;;;;;49.47;23.43;;;-1.40;99.90;;;;;;5049930;28;20464;-67
2022/12/11 09:38:44;;;;;;;47.20;20.87;;;-1.40;99.90;;;;;;5049955;28;20449;-66
2022/12/11 09:41:31;;;;;;;43.03;20.20;;;-1.40;99.90;;;;;;5050229;28;20958;-66
2022/12/11 09:44:08;;;;;;;48.00;21.87;;;-1.40;99.90;;;;;;5049300;28;21910;-66
2022/12/11 09:46:36;;;;;;;49.73;22.20;;;-1.40;99.90;;;;;;5049511;28;20458;-66
2022/12/11 09:49:04;;;;;;;52.47;24.40;;;-1.40;99.90;;;;;;5049883;28;20445;-66
2022/12/11 09:51:36;;;;;;;57.20;22.70;;;-1.30;99.90;;;;;;5049769;28;20454;-66
2022/12/11 09:54:04;;;;;;;52.73;22.00;;;-1.40;99.90;;;;;;5044067;28;21033;-66
2022/12/11 09:56:33;;;;;;;55.33;23.70;;;-1.50;99.90;;;;;;5048937;28;20457;-66
2022/12/11 09:59:13;;;;;;;49.10;23.60;;;-1.40;99.90;;;;;;5049694;28;20446;-66
2022/12/11 10:01:48;;;;;;;59.67;23.73;;;-1.40;99.90;;;;;;5049709;28;20484;-66
2022/12/11 10:04:31;;;;;;;57.03;25.27;;;-1.40;99.90;;;;;;5048870;28;20481;-66
2022/12/11 10:07:07;;;;;;;50.73;22.73;;;-1.40;99.90;;;;;;5047978;28;21019;-67
2022/12/11 10:09:42;;;;;;;58.80;22.97;;;-1.30;99.90;;;;;;5048805;28;20479;-66
2022/12/11 10:12:19;;;;;;;56.77;22.47;;;-1.40;99.90;;;;;;5045898;28;20445;-66
2022/12/11 10:14:59;;;;;;;62.00;23.73;;;-1.40;99.90;;;;;;5045455;28;20473;-67
2022/12/11 10:17:30;;;;;;;50.30;22.53;;;-1.40;99.90;;;;;;5045469;28;20465;-65
2022/12/11 10:20:02;;;;;;;53.50;21.40;;;-1.30;99.90;;;;;;5045991;28;20462;-67
2022/12/11 10:22:32;;;;;;;51.47;20.63;;;-1.30;99.90;;;;;;5042205;28;20558;-66
2022/12/11 10:25:02;;;;;;;44.90;19.30;;;-1.20;99.90;;;;;;5039828;28;20481;-66
2022/12/11 10:27:30;;;;;;;42.53;19.67;;;-1.10;99.90;;;;;;5047264;28;20462;-66
2022/12/11 10:30:05;;;;;;;42.80;18.80;;;-1.10;99.90;;;;;;5046798;28;20552;-66
2022/12/11 10:32:41;;;;;;;46.00;20.40;;;-1.00;99.90;;;;;;5042690;28;20891;-66
2022/12/11 10:35:17;;;;;;;40.23;18.67;;;-1.00;99.90;;;;;;5047001;28;20469;-66
2022/12/11 10:37:43;;;;;;;40.73;20.10;;;-1.00;99.90;;;;;;5049559;28;20472;-66
2022/12/11 10:40:12;;;;;;;46.13;20.40;;;-1.00;99.90;;;;;;5052914;28;20524;-66
2022/12/11 10:42:38;;;;;;;45.60;20.53;;;-1.00;99.90;;;;;;5048792;28;20490;-66
2022/12/11 10:45:07;;;;;;;43.03;21.20;;;-0.90;99.90;;;;;;5052243;28;20506;-66
2022/12/11 10:47:35;;;;;;;50.23;20.73;;;-0.80;99.90;;;;;;5048880;28;20837;-66
2022/12/11 10:50:03;;;;;;;42.20;21.67;;;-0.80;99.90;;;;;;5052191;28;20960;-66
2022/12/11 10:52:33;;;;;;;45.73;21.43;;;-0.70;99.90;;;;;;5052847;28;20446;-67
2022/12/11 10:55:03;;;;;;;41.40;19.80;;;-0.60;99.90;;;;;;5053006;28;20539;-66
2022/12/11 10:57:33;;;;;;;46.07;17.80;;;-0.60;99.90;;;;;;5049029;28;21296;-66
2022/12/11 11:00:01;;;;;;;38.70;17.97;;;-0.50;99.90;;;;;;5052265;28;20454;-66
2022/12/11 11:02:31;;;;;;;40.27;18.87;;;-0.60;99.90;;;;;;5053017;28;20486;-67
2022/12/11 11:05:00;;;;;;;39.43;17.63;;;-0.60;99.90;;;;;;5051863;28;20493;-67
2022/12/11 11:07:29;;;;;;;42.00;18.37;;;-0.60;99.90;;;;;;5052689;28;20470;-66
2022/12/11 11:10:14;;;;;;;33.93;17.47;;;-0.70;99.90;;;;;;5052132;28;20508;-67
2022/12/11 11:12:43;;;;;;;37.90;17.67;;;-0.70;99.90;;;;;;5052571;28;20470;-67
2022/12/11 11:15:13;;;;;;;45.80;20.97;;;-0.80;99.90;;;;;;5052388;28;20534;-67
2022/12/11 11:17:46;;;;;;;50.00;22.83;;;-0.80;99.90;;;;;;5052565;28;20450;-68
2022/12/11 11:20:16;;;;;;;42.37;20.10;;;-0.90;99.90;;;;;;5049857;28;20453;-68
2022/12/11 11:22:46;;;;;;;50.47;21.53;;;-0.90;99.90;;;;;;5051648;28;20490;-68
2022/12/11 11:25:19;;;;;;;48.23;20.67;;;-1.00;99.90;;;;;;5048709;28;21054;-68
2022/12/11 11:27:51;;;;;;;41.07;18.40;;;-1.00;99.90;;;;;;5048511;28;20540;-68
2022/12/11 11:30:20;;;;;;;46.90;20.97;;;-1.00;99.90;;;;;;5051718;28;20499;-67
2022/12/11 11:32:51;;;;;;;44.87;20.20;;;-1.00;99.90;;;;;;5051381;28;20481;-68
2022/12/11 11:35:21;;;;;;;48.03;21.93;;;-1.00;99.90;;;;;;5052532;28;20512;-69
2022/12/11 11:37:56;;;;;;;23.07;11.33;;;-0.90;99.90;;;;;;5051892;28;20818;-68
2022/12/11 11:40:27;;;;;;;41.37;18.53;;;-0.80;99.90;;;;;;5051869;28;20446;-67
2022/12/11 11:43:03;;;;;;;54.23;21.27;;;-0.70;99.90;;;;;;5046524;28;20482;-68
2022/12/11 11:45:34;;;;;;;54.40;22.60;;;-0.60;99.90;;;;;;5051129;28;20496;-69
2022/12/11 11:48:21;;;;;;;40.43;16.73;;;-0.50;99.90;;;;;;5047196;28;20894;-68
2022/12/11 11:50:50;;;;;;;38.50;19.10;;;-0.50;99.90;;;;;;5051188;28;20450;-68
2022/12/11 11:53:22;;;;;;;39.57;17.70;;;-0.50;99.90;;;;;;5044292;28;20453;-68
2022/12/11 11:55:54;;;;;;;38.37;17.93;;;-0.50;99.90;;;;;;5050936;28;20493;-68
2022/12/11 11:58:24;;;;;;;33.80;17.63;;;-0.50;99.90;;;;;;5051220;28;20452;-69
2022/12/11 12:00:54;;;;;;;58.60;21.43;;;-0.40;99.90;;;;;;5047769;28;20459;-68
2022/12/11 12:03:24;;;;;;;39.70;17.50;;;-0.30;99.90;;;;;;5049102;28;20488;-67
2022/12/11 12:05:56;;;;;;;32.37;14.90;;;-0.10;99.90;;;;;;5051037;28;20986;-68
2022/12/11 12:08:34;;;;;;;28.43;12.07;;;-0.10;99.90;;;;;;5050837;28;20457;-68
2022/12/11 12:11:06;;;;;;;25.67;12.37;;;0.00;99.90;;;;;;5051007;28;20459;-69
2022/12/11 12:13:45;;;;;;;26.93;12.03;;;0.00;99.90;;;;;;5051533;28;20442;-68
2022/12/11 12:16:18;;;;;;;27.10;11.10;;;0.10;99.90;;;;;;5051195;28;20512;-69
2022/12/11 12:18:53;;;;;;;26.23;11.60;;;0.20;99.90;;;;;;5050998;28;20858;-69
2022/12/11 12:21:28;;;;;;;26.10;11.00;;;0.30;99.90;;;;;;5047762;28;20503;-70
2022/12/11 12:24:12;;;;;;;20.33;10.00;;;0.40;99.90;;;;;;5050339;28;20939;-69
2022/12/11 12:26:44;;;;;;;23.07;10.83;;;0.40;99.90;;;;;;5049545;28;20449;-69
2022/12/11 12:29:23;;;;;;;23.27;10.27;;;0.50;99.90;;;;;;5048155;28;20899;-71
2022/12/11 12:32:04;;;;;;;17.90;9.17;;;0.40;99.90;;;;;;5047531;28;20466;-69
2022/12/11 12:34:44;;;;;;;17.80;9.13;;;0.40;99.90;;;;;;5049749;28;21017;-68
2022/12/11 12:37:22;;;;;;;19.40;9.03;;;0.30;99.90;;;;;;5046356;28;20456;-69
2022/12/11 12:39:59;;;;;;;24.50;10.47;;;0.30;99.90;;;;;;5047535;28;20834;-68
2022/12/11 12:42:38;;;;;;;17.80;9.70;;;0.20;99.90;;;;;;5050969;28;20835;-68
2022/12/11 12:45:26;;;;;;;25.03;10.50;;;0.20;99.90;;;;;;5050227;28;20985;-69
2022/12/11 12:47:53;;;;;;;20.53;9.33;;;0.10;99.90;;;;;;5051113;28;20469;-68